sensor_id;sensor_type;location;lat;lon;timestamp;temperature;humidity
1381;DHT22;684;48.342;10.096;2023-06-14T00:01:51;15.50;6.70
1381;DHT22;684;48.342;10.096;2023-06-14T00:04:17;15.50;6.60
1381;DHT22;684;48.342;10.096;2023-06-14T00:06:46;15.50;6.80
1381;DHT22;684;48.342;10.096;2023-06-14T00:09:14;15.50;6.70
1381;DHT22;684;48.342;10.096;2023-06-14T00:11:44;15.50;6.80
1381;DHT22;684;48.342;10.096;2023-06-14T00:14:11;15.40;6.80
1381;DHT22;684;48.342;10.096;2023-06-14T00:16:39;15.40;6.90
1381;DHT22;684;48.342;10.096;2023-06-14T00:19:07;15.30;7.10
1381;DHT22;684;48.342;10.096;2023-06-14T00:21:35;15.30;7.10
1381;DHT22;684;48.342;10.096;2023-06-14T00:24:04;15.30;7.30
1381;DHT22;684;48.342;10.096;2023-06-14T00:26:31;15.30;7.30
1381;DHT22;684;48.342;10.096;2023-06-14T00:28:59;15.20;7.30
1381;DHT22;684;48.342;10.096;2023-06-14T00:31:26;15.20;7.60
1381;DHT22;684;48.342;10.096;2023-06-14T00:33:52;15.20;7.70
1381;DHT22;684;48.342;10.096;2023-06-14T00:36:19;15.10;7.90
1381;DHT22;684;48.342;10.096;2023-06-14T00:38:46;15.10;7.90
1381;DHT22;684;48.342;10.096;2023-06-14T00:41:12;15.10;8.00
1381;DHT22;684;48.342;10.096;2023-06-14T00:43:39;15.00;8.10
1381;DHT22;684;48.342;10.096;2023-06-14T00:46:07;15.00;8.20
1381;DHT22;684;48.342;10.096;2023-06-14T00:48:34;14.90;8.10
1381;DHT22;684;48.342;10.096;2023-06-14T00:51:02;14.90;8.30
1381;DHT22;684;48.342;10.096;2023-06-14T00:53:29;14.90;8.30
1381;DHT22;684;48.342;10.096;2023-06-14T00:55:59;14.90;8.70
1381;DHT22;684;48.342;10.096;2023-06-14T00:58:26;14.80;9.10
1381;DHT22;684;48.342;10.096;2023-06-14T01:00:54;14.70;9.00
1381;DHT22;684;48.342;10.096;2023-06-14T01:03:22;14.70;9.00
1381;DHT22;684;48.342;10.096;2023-06-14T01:06:00;14.70;9.10
1381;DHT22;684;48.342;10.096;2023-06-14T01:08:37;14.70;9.30
1381;DHT22;684;48.342;10.096;2023-06-14T01:11:22;14.60;9.30
1381;DHT22;684;48.342;10.096;2023-06-14T01:13:52;14.60;9.30
1381;DHT22;684;48.342;10.096;2023-06-14T01:16:20;14.60;9.30
1381;DHT22;684;48.342;10.096;2023-06-14T01:18:48;14.50;9.30
1381;DHT22;684;48.342;10.096;2023-06-14T01:21:25;14.50;9.30
1381;DHT22;684;48.342;10.096;2023-06-14T01:23:55;14.50;9.30
1381;DHT22;684;48.342;10.096;2023-06-14T01:26:22;14.50;9.00
1381;DHT22;684;48.342;10.096;2023-06-14T01:28:49;14.50;9.00
1381;DHT22;684;48.342;10.096;2023-06-14T01:31:19;14.40;9.00
1381;DHT22;684;48.342;10.096;2023-06-14T01:33:48;14.40;8.60
1381;DHT22;684;48.342;10.096;2023-06-14T01:36:15;14.40;8.60
1381;DHT22;684;48.342;10.096;2023-06-14T01:38:43;14.40;8.70
1381;DHT22;684;48.342;10.096;2023-06-14T01:41:12;14.40;8.80
1381;DHT22;684;48.342;10.096;2023-06-14T01:43:40;14.40;8.90
1381;DHT22;684;48.342;10.096;2023-06-14T01:46:08;14.40;9.10
1381;DHT22;684;48.342;10.096;2023-06-14T01:48:36;14.40;9.00
1381;DHT22;684;48.342;10.096;2023-06-14T01:51:03;14.40;9.10
1381;DHT22;684;48.342;10.096;2023-06-14T01:53:29;14.40;9.20
1381;DHT22;684;48.342;10.096;2023-06-14T01:55:56;14.30;9.20
1381;DHT22;684;48.342;10.096;2023-06-14T01:58:24;14.30;9.50
1381;DHT22;684;48.342;10.096;2023-06-14T02:00:51;14.30;9.50
1381;DHT22;684;48.342;10.096;2023-06-14T02:03:20;14.20;9.40
1381;DHT22;684;48.342;10.096;2023-06-14T02:05:48;14.20;9.60
1381;DHT22;684;48.342;10.096;2023-06-14T02:08:15;14.10;9.70
1381;DHT22;684;48.342;10.096;2023-06-14T02:10:42;14.10;9.90
1381;DHT22;684;48.342;10.096;2023-06-14T02:13:08;14.10;10.00
1381;DHT22;684;48.342;10.096;2023-06-14T02:15:36;14.00;10.20
1381;DHT22;684;48.342;10.096;2023-06-14T02:18:04;14.00;10.20
1381;DHT22;684;48.342;10.096;2023-06-14T02:23:00;13.90;10.50
1381;DHT22;684;48.342;10.096;2023-06-14T02:25:27;13.90;10.60
1381;DHT22;684;48.342;10.096;2023-06-14T02:27:54;13.90;10.60
1381;DHT22;684;48.342;10.096;2023-06-14T02:30:21;13.80;10.70
1381;DHT22;684;48.342;10.096;2023-06-14T02:32:49;13.80;10.60
1381;DHT22;684;48.342;10.096;2023-06-14T02:35:16;13.80;10.50
1381;DHT22;684;48.342;10.096;2023-06-14T02:37:43;13.80;10.80
1381;DHT22;684;48.342;10.096;2023-06-14T02:40:10;13.80;10.90
1381;DHT22;684;48.342;10.096;2023-06-14T02:42:37;13.70;10.90
1381;DHT22;684;48.342;10.096;2023-06-14T02:45:05;13.70;11.10
1381;DHT22;684;48.342;10.096;2023-06-14T02:47:32;13.70;11.10
1381;DHT22;684;48.342;10.096;2023-06-14T02:50:00;13.70;10.90
1381;DHT22;684;48.342;10.096;2023-06-14T02:52:28;13.70;10.90
1381;DHT22;684;48.342;10.096;2023-06-14T02:54:54;13.60;11.00
1381;DHT22;684;48.342;10.096;2023-06-14T02:57:21;13.60;10.80
1381;DHT22;684;48.342;10.096;2023-06-14T02:59:48;13.60;10.50
1381;DHT22;684;48.342;10.096;2023-06-14T03:02:15;13.60;10.80
1381;DHT22;684;48.342;10.096;2023-06-14T03:04:41;13.60;10.80
1381;DHT22;684;48.342;10.096;2023-06-14T03:07:11;13.60;11.10
1381;DHT22;684;48.342;10.096;2023-06-14T03:09:39;13.60;11.10
1381;DHT22;684;48.342;10.096;2023-06-14T03:12:07;13.60;11.10
1381;DHT22;684;48.342;10.096;2023-06-14T03:14:34;13.60;10.90
1381;DHT22;684;48.342;10.096;2023-06-14T03:17:01;13.60;11.10
1381;DHT22;684;48.342;10.096;2023-06-14T03:19:30;13.50;11.30
1381;DHT22;684;48.342;10.096;2023-06-14T03:21:57;13.50;11.20
1381;DHT22;684;48.342;10.096;2023-06-14T03:24:25;13.50;11.20
1381;DHT22;684;48.342;10.096;2023-06-14T03:26:52;13.50;11.40
1381;DHT22;684;48.342;10.096;2023-06-14T03:29:19;13.50;11.50
1381;DHT22;684;48.342;10.096;2023-06-14T03:31:57;13.50;11.40
1381;DHT22;684;48.342;10.096;2023-06-14T03:34:24;13.50;11.60
1381;DHT22;684;48.342;10.096;2023-06-14T03:36:51;13.50;11.50
1381;DHT22;684;48.342;10.096;2023-06-14T03:39:18;13.50;11.50
1381;DHT22;684;48.342;10.096;2023-06-14T03:41:46;13.50;11.30
1381;DHT22;684;48.342;10.096;2023-06-14T03:44:15;13.50;11.00
1381;DHT22;684;48.342;10.096;2023-06-14T03:46:42;13.50;11.00
1381;DHT22;684;48.342;10.096;2023-06-14T03:49:09;13.50;11.40
1381;DHT22;684;48.342;10.096;2023-06-14T03:51:37;13.50;11.40
1381;DHT22;684;48.342;10.096;2023-06-14T03:54:05;13.50;12.00
1381;DHT22;684;48.342;10.096;2023-06-14T03:56:31;13.60;11.60
1381;DHT22;684;48.342;10.096;2023-06-14T03:58:59;13.60;11.50
1381;DHT22;684;48.342;10.096;2023-06-14T04:01:26;13.70;11.00
1381;DHT22;684;48.342;10.096;2023-06-14T04:03:55;13.70;11.20
1381;DHT22;684;48.342;10.096;2023-06-14T04:06:22;13.70;11.20
1381;DHT22;684;48.342;10.096;2023-06-14T04:08:50;13.70;11.20
1381;DHT22;684;48.342;10.096;2023-06-14T04:11:17;13.80;11.00
1381;DHT22;684;48.342;10.096;2023-06-14T04:13:45;13.80;10.70
1381;DHT22;684;48.342;10.096;2023-06-14T04:16:13;13.90;10.90
1381;DHT22;684;48.342;10.096;2023-06-14T04:18:40;13.90;11.10
1381;DHT22;684;48.342;10.096;2023-06-14T04:21:07;14.00;10.90
1381;DHT22;684;48.342;10.096;2023-06-14T04:23:33;14.10;10.70
1381;DHT22;684;48.342;10.096;2023-06-14T04:26:00;14.10;10.30
1381;DHT22;684;48.342;10.096;2023-06-14T04:28:28;14.20;10.20
1381;DHT22;684;48.342;10.096;2023-06-14T04:30:55;14.40;10.30
1381;DHT22;684;48.342;10.096;2023-06-14T04:33:23;15.20;10.30
1381;DHT22;684;48.342;10.096;2023-06-14T04:35:50;16.90;8.00
1381;DHT22;684;48.342;10.096;2023-06-14T04:38:19;18.60;4.50
1381;DHT22;684;48.342;10.096;2023-06-14T04:40:50;20.10;1.60
1381;DHT22;684;48.342;10.096;2023-06-14T04:43:18;21.40;1.00
1381;DHT22;684;48.342;10.096;2023-06-14T04:45:53;22.60;1.00
1381;DHT22;684;48.342;10.096;2023-06-14T04:48:23;23.50;1.00
1381;DHT22;684;48.342;10.096;2023-06-14T04:50:50;24.40;1.00
1381;DHT22;684;48.342;10.096;2023-06-14T04:53:19;25.30;1.00
1381;DHT22;684;48.342;10.096;2023-06-14T04:55:48;25.70;1.00
1381;DHT22;684;48.342;10.096;2023-06-14T04:58:15;25.10;1.00
1381;DHT22;684;48.342;10.096;2023-06-14T05:00:42;25.20;1.00
1381;DHT22;684;48.342;10.096;2023-06-14T05:03:09;26.20;1.00
1381;DHT22;684;48.342;10.096;2023-06-14T05:05:40;27.30;1.00
1381;DHT22;684;48.342;10.096;2023-06-14T05:08:07;28.40;1.00
1381;DHT22;684;48.342;10.096;2023-06-14T05:10:34;29.20;1.00
1381;DHT22;684;48.342;10.096;2023-06-14T05:13:01;29.90;1.00
1381;DHT22;684;48.342;10.096;2023-06-14T05:15:28;30.60;1.00
1381;DHT22;684;48.342;10.096;2023-06-14T05:17:55;31.30;1.00
1381;DHT22;684;48.342;10.096;2023-06-14T05:20:22;32.00;1.00
1381;DHT22;684;48.342;10.096;2023-06-14T05:22:52;32.60;1.00
1381;DHT22;684;48.342;10.096;2023-06-14T05:25:18;33.10;1.00
1381;DHT22;684;48.342;10.096;2023-06-14T05:27:45;33.70;1.00
1381;DHT22;684;48.342;10.096;2023-06-14T05:30:13;34.30;1.00
1381;DHT22;684;48.342;10.096;2023-06-14T05:32:40;34.80;1.00
1381;DHT22;684;48.342;10.096;2023-06-14T05:35:07;35.30;1.00
1381;DHT22;684;48.342;10.096;2023-06-14T05:37:34;35.90;1.00
1381;DHT22;684;48.342;10.096;2023-06-14T05:40:03;36.50;1.00
1381;DHT22;684;48.342;10.096;2023-06-14T05:42:31;36.80;1.00
1381;DHT22;684;48.342;10.096;2023-06-14T05:44:58;37.40;1.00
1381;DHT22;684;48.342;10.096;2023-06-14T05:47:25;38.00;1.00
1381;DHT22;684;48.342;10.096;2023-06-14T05:49:53;38.60;1.00
1381;DHT22;684;48.342;10.096;2023-06-14T05:52:20;39.00;1.00
1381;DHT22;684;48.342;10.096;2023-06-14T05:54:47;39.30;1.00
1381;DHT22;684;48.342;10.096;2023-06-14T05:57:15;39.70;1.00
1381;DHT22;684;48.342;10.096;2023-06-14T05:59:42;40.30;1.00
1381;DHT22;684;48.342;10.096;2023-06-14T06:02:09;40.80;1.00
1381;DHT22;684;48.342;10.096;2023-06-14T06:04:36;41.30;1.00
1381;DHT22;684;48.342;10.096;2023-06-14T06:07:03;41.90;1.00
1381;DHT22;684;48.342;10.096;2023-06-14T06:09:30;42.30;1.00
1381;DHT22;684;48.342;10.096;2023-06-14T06:11:57;42.70;1.00
1381;DHT22;684;48.342;10.096;2023-06-14T06:14:25;43.00;1.00
1381;DHT22;684;48.342;10.096;2023-06-14T06:16:52;43.00;1.00
1381;DHT22;684;48.342;10.096;2023-06-14T06:19:19;43.40;1.00
1381;DHT22;684;48.342;10.096;2023-06-14T06:21:45;43.50;1.00
1381;DHT22;684;48.342;10.096;2023-06-14T06:24:13;43.70;1.00
1381;DHT22;684;48.342;10.096;2023-06-14T06:26:39;44.20;1.00
1381;DHT22;684;48.342;10.096;2023-06-14T06:29:06;44.60;1.00
1381;DHT22;684;48.342;10.096;2023-06-14T06:31:34;45.00;1.00
1381;DHT22;684;48.342;10.096;2023-06-14T06:34:01;45.50;1.00
1381;DHT22;684;48.342;10.096;2023-06-14T06:36:28;46.10;1.00
1381;DHT22;684;48.342;10.096;2023-06-14T06:38:55;46.40;1.00
1381;DHT22;684;48.342;10.096;2023-06-14T06:41:21;46.80;1.00
1381;DHT22;684;48.342;10.096;2023-06-14T06:43:48;47.30;1.00
1381;DHT22;684;48.342;10.096;2023-06-14T06:46:15;47.90;1.00
1381;DHT22;684;48.342;10.096;2023-06-14T06:48:44;48.20;1.00
1381;DHT22;684;48.342;10.096;2023-06-14T06:51:11;48.40;1.00
1381;DHT22;684;48.342;10.096;2023-06-14T06:53:41;48.80;1.00
1381;DHT22;684;48.342;10.096;2023-06-14T06:56:08;49.30;1.00
1381;DHT22;684;48.342;10.096;2023-06-14T06:58:34;49.70;1.00
1381;DHT22;684;48.342;10.096;2023-06-14T07:01:01;50.00;1.00
1381;DHT22;684;48.342;10.096;2023-06-14T07:03:28;50.30;1.00
1381;DHT22;684;48.342;10.096;2023-06-14T07:05:57;50.50;1.00
1381;DHT22;684;48.342;10.096;2023-06-14T07:08:23;50.60;1.00
1381;DHT22;684;48.342;10.096;2023-06-14T07:10:50;50.90;1.00
1381;DHT22;684;48.342;10.096;2023-06-14T07:13:17;51.50;1.00
1381;DHT22;684;48.342;10.096;2023-06-14T07:15:44;51.70;1.00
1381;DHT22;684;48.342;10.096;2023-06-14T07:18:11;52.00;1.00
1381;DHT22;684;48.342;10.096;2023-06-14T07:20:38;51.60;1.00
1381;DHT22;684;48.342;10.096;2023-06-14T07:23:07;51.30;1.00
1381;DHT22;684;48.342;10.096;2023-06-14T07:25:33;51.40;1.00
1381;DHT22;684;48.342;10.096;2023-06-14T07:28:00;52.00;1.00
1381;DHT22;684;48.342;10.096;2023-06-14T07:30:27;52.60;1.00
1381;DHT22;684;48.342;10.096;2023-06-14T07:32:55;53.20;1.00
1381;DHT22;684;48.342;10.096;2023-06-14T07:35:22;53.40;1.00
1381;DHT22;684;48.342;10.096;2023-06-14T07:37:49;53.40;1.00
1381;DHT22;684;48.342;10.096;2023-06-14T07:40:17;53.40;1.00
1381;DHT22;684;48.342;10.096;2023-06-14T07:42:43;53.40;1.00
1381;DHT22;684;48.342;10.096;2023-06-14T07:47:39;53.40;1.00
1381;DHT22;684;48.342;10.096;2023-06-14T07:50:06;53.50;1.00
1381;DHT22;684;48.342;10.096;2023-06-14T07:52:33;53.40;1.00
1381;DHT22;684;48.342;10.096;2023-06-14T07:55:00;53.80;1.00
1381;DHT22;684;48.342;10.096;2023-06-14T07:57:28;54.30;1.00
1381;DHT22;684;48.342;10.096;2023-06-14T07:59:55;54.70;1.00
1381;DHT22;684;48.342;10.096;2023-06-14T08:02:21;55.00;1.00
1381;DHT22;684;48.342;10.096;2023-06-14T08:04:48;55.30;1.00
1381;DHT22;684;48.342;10.096;2023-06-14T08:07:15;55.40;1.00
1381;DHT22;684;48.342;10.096;2023-06-14T08:09:42;55.80;1.00
1381;DHT22;684;48.342;10.096;2023-06-14T08:12:09;55.80;1.00
1381;DHT22;684;48.342;10.096;2023-06-14T08:14:38;55.80;1.00
1381;DHT22;684;48.342;10.096;2023-06-14T08:17:05;55.90;1.00
1381;DHT22;684;48.342;10.096;2023-06-14T08:19:32;56.30;1.00
1381;DHT22;684;48.342;10.096;2023-06-14T08:21:58;56.20;1.00
1381;DHT22;684;48.342;10.096;2023-06-14T08:24:25;56.30;1.00
1381;DHT22;684;48.342;10.096;2023-06-14T08:26:53;56.40;1.00
1381;DHT22;684;48.342;10.096;2023-06-14T08:29:20;56.50;1.00
1381;DHT22;684;48.342;10.096;2023-06-14T08:31:48;56.50;1.00
1381;DHT22;684;48.342;10.096;2023-06-14T08:34:15;56.30;1.00
1381;DHT22;684;48.342;10.096;2023-06-14T08:36:41;56.50;1.00
1381;DHT22;684;48.342;10.096;2023-06-14T08:39:08;56.50;1.00
1381;DHT22;684;48.342;10.096;2023-06-14T08:41:35;56.50;1.00
1381;DHT22;684;48.342;10.096;2023-06-14T08:44:02;56.30;1.00
1381;DHT22;684;48.342;10.096;2023-06-14T08:46:32;56.40;1.00
1381;DHT22;684;48.342;10.096;2023-06-14T08:49:01;56.50;1.00
1381;DHT22;684;48.342;10.096;2023-06-14T08:51:31;56.10;1.00
1381;DHT22;684;48.342;10.096;2023-06-14T08:53:59;55.60;1.00
1381;DHT22;684;48.342;10.096;2023-06-14T08:56:27;56.00;1.00
1381;DHT22;684;48.342;10.096;2023-06-14T08:58:55;56.30;1.00
1381;DHT22;684;48.342;10.096;2023-06-14T09:01:23;56.50;1.00
1381;DHT22;684;48.342;10.096;2023-06-14T09:03:50;56.60;1.00
1381;DHT22;684;48.342;10.096;2023-06-14T09:06:19;56.90;1.00
1381;DHT22;684;48.342;10.096;2023-06-14T09:08:49;57.00;1.00
1381;DHT22;684;48.342;10.096;2023-06-14T09:11:17;56.70;1.00
1381;DHT22;684;48.342;10.096;2023-06-14T09:13:44;56.50;1.00
1381;DHT22;684;48.342;10.096;2023-06-14T09:16:12;56.20;1.00
1381;DHT22;684;48.342;10.096;2023-06-14T09:18:41;55.30;1.00
1381;DHT22;684;48.342;10.096;2023-06-14T09:21:10;53.50;1.00
1381;DHT22;684;48.342;10.096;2023-06-14T09:23:40;50.90;1.00
1381;DHT22;684;48.342;10.096;2023-06-14T09:26:08;48.70;1.00
1381;DHT22;684;48.342;10.096;2023-06-14T09:28:35;46.50;1.00
1381;DHT22;684;48.342;10.096;2023-06-14T09:31:02;44.50;1.00
1381;DHT22;684;48.342;10.096;2023-06-14T09:33:28;42.80;1.00
1381;DHT22;684;48.342;10.096;2023-06-14T09:35:57;41.40;1.00
1381;DHT22;684;48.342;10.096;2023-06-14T09:38:24;40.10;1.00
1381;DHT22;684;48.342;10.096;2023-06-14T09:40:55;38.90;1.00
1381;DHT22;684;48.342;10.096;2023-06-14T09:43:23;37.90;1.00
1381;DHT22;684;48.342;10.096;2023-06-14T09:45:51;36.80;1.00
1381;DHT22;684;48.342;10.096;2023-06-14T09:48:18;36.00;1.00
1381;DHT22;684;48.342;10.096;2023-06-14T09:50:45;35.30;1.00
1381;DHT22;684;48.342;10.096;2023-06-14T09:53:14;34.70;1.00
1381;DHT22;684;48.342;10.096;2023-06-14T09:55:42;34.20;1.00
1381;DHT22;684;48.342;10.096;2023-06-14T09:58:10;33.70;1.00
1381;DHT22;684;48.342;10.096;2023-06-14T10:00:39;33.20;1.00
1381;DHT22;684;48.342;10.096;2023-06-14T10:03:12;32.80;1.00
1381;DHT22;684;48.342;10.096;2023-06-14T10:05:42;32.60;1.00
1381;DHT22;684;48.342;10.096;2023-06-14T10:08:13;32.30;1.00
1381;DHT22;684;48.342;10.096;2023-06-14T10:10:42;31.80;1.00
1381;DHT22;684;48.342;10.096;2023-06-14T10:13:11;31.40;1.00
1381;DHT22;684;48.342;10.096;2023-06-14T10:15:42;31.10;1.00
1381;DHT22;684;48.342;10.096;2023-06-14T10:18:18;30.80;1.00
1381;DHT22;684;48.342;10.096;2023-06-14T10:20:52;30.30;1.00
1381;DHT22;684;48.342;10.096;2023-06-14T10:23:23;30.10;1.00
1381;DHT22;684;48.342;10.096;2023-06-14T10:25:51;29.90;1.00
1381;DHT22;684;48.342;10.096;2023-06-14T10:28:23;29.70;1.00
1381;DHT22;684;48.342;10.096;2023-06-14T10:31:03;29.70;1.00
1381;DHT22;684;48.342;10.096;2023-06-14T10:33:30;29.60;1.00
1381;DHT22;684;48.342;10.096;2023-06-14T10:36:25;29.40;1.00
1381;DHT22;684;48.342;10.096;2023-06-14T10:39:00;29.30;1.00
1381;DHT22;684;48.342;10.096;2023-06-14T10:41:28;29.30;1.00
1381;DHT22;684;48.342;10.096;2023-06-14T10:44:32;29.20;1.00
1381;DHT22;684;48.342;10.096;2023-06-14T10:46:59;29.10;1.00
1381;DHT22;684;48.342;10.096;2023-06-14T10:49:38;28.90;1.00
1381;DHT22;684;48.342;10.096;2023-06-14T10:52:08;28.70;1.00
1381;DHT22;684;48.342;10.096;2023-06-14T10:54:37;28.50;1.00
1381;DHT22;684;48.342;10.096;2023-06-14T10:57:06;28.20;1.00
1381;DHT22;684;48.342;10.096;2023-06-14T10:59:35;28.10;1.00
1381;DHT22;684;48.342;10.096;2023-06-14T11:02:20;28.10;1.00
1381;DHT22;684;48.342;10.096;2023-06-14T11:04:54;28.20;1.00
1381;DHT22;684;48.342;10.096;2023-06-14T11:07:35;28.30;1.00
1381;DHT22;684;48.342;10.096;2023-06-14T11:10:17;28.40;1.00
1381;DHT22;684;48.342;10.096;2023-06-14T11:12:48;28.60;1.00
1381;DHT22;684;48.342;10.096;2023-06-14T11:15:16;28.70;1.00
1381;DHT22;684;48.342;10.096;2023-06-14T11:17:50;28.80;1.00
1381;DHT22;684;48.342;10.096;2023-06-14T11:20:19;28.90;1.00
1381;DHT22;684;48.342;10.096;2023-06-14T11:22:47;28.80;1.00
1381;DHT22;684;48.342;10.096;2023-06-14T11:25:14;28.70;1.00
1381;DHT22;684;48.342;10.096;2023-06-14T11:27:41;28.70;1.00
1381;DHT22;684;48.342;10.096;2023-06-14T11:30:09;28.70;1.00
1381;DHT22;684;48.342;10.096;2023-06-14T11:32:37;28.70;1.00
1381;DHT22;684;48.342;10.096;2023-06-14T11:35:05;28.70;1.00
1381;DHT22;684;48.342;10.096;2023-06-14T11:37:32;28.70;1.00
1381;DHT22;684;48.342;10.096;2023-06-14T11:39:59;28.70;1.00
1381;DHT22;684;48.342;10.096;2023-06-14T11:42:27;28.90;1.00
1381;DHT22;684;48.342;10.096;2023-06-14T11:44:54;28.90;1.00
1381;DHT22;684;48.342;10.096;2023-06-14T11:47:21;28.90;1.00
1381;DHT22;684;48.342;10.096;2023-06-14T11:49:50;28.80;1.00
1381;DHT22;684;48.342;10.096;2023-06-14T11:52:18;28.50;1.00
1381;DHT22;684;48.342;10.096;2023-06-14T11:54:47;28.30;1.00
1381;DHT22;684;48.342;10.096;2023-06-14T11:57:14;28.30;1.00
1381;DHT22;684;48.342;10.096;2023-06-14T11:59:44;28.30;1.00
1381;DHT22;684;48.342;10.096;2023-06-14T12:02:14;28.40;1.00
1381;DHT22;684;48.342;10.096;2023-06-14T12:04:41;28.40;1.00
1381;DHT22;684;48.342;10.096;2023-06-14T12:07:13;28.30;1.00
1381;DHT22;684;48.342;10.096;2023-06-14T12:09:41;28.30;1.00
1381;DHT22;684;48.342;10.096;2023-06-14T12:12:09;28.20;1.00
1381;DHT22;684;48.342;10.096;2023-06-14T12:14:36;28.10;1.00
1381;DHT22;684;48.342;10.096;2023-06-14T12:17:06;27.90;1.00
1381;DHT22;684;48.342;10.096;2023-06-14T12:19:41;27.90;1.00
1381;DHT22;684;48.342;10.096;2023-06-14T12:22:09;27.90;1.00
1381;DHT22;684;48.342;10.096;2023-06-14T12:24:37;27.90;1.00
1381;DHT22;684;48.342;10.096;2023-06-14T12:27:05;27.80;1.00
1381;DHT22;684;48.342;10.096;2023-06-14T12:29:32;27.70;1.00
1381;DHT22;684;48.342;10.096;2023-06-14T12:31:59;27.70;1.00
1381;DHT22;684;48.342;10.096;2023-06-14T12:34:26;27.60;1.00
1381;DHT22;684;48.342;10.096;2023-06-14T12:36:53;27.50;1.00
1381;DHT22;684;48.342;10.096;2023-06-14T12:39:20;27.50;1.00
1381;DHT22;684;48.342;10.096;2023-06-14T12:41:48;27.40;1.00
1381;DHT22;684;48.342;10.096;2023-06-14T12:44:15;27.30;1.00
1381;DHT22;684;48.342;10.096;2023-06-14T12:46:42;27.10;1.00
1381;DHT22;684;48.342;10.096;2023-06-14T12:49:10;27.10;1.00
1381;DHT22;684;48.342;10.096;2023-06-14T12:51:37;27.00;1.00
1381;DHT22;684;48.342;10.096;2023-06-14T12:54:04;26.90;1.00
1381;DHT22;684;48.342;10.096;2023-06-14T12:56:32;26.90;1.00
1381;DHT22;684;48.342;10.096;2023-06-14T12:59:00;26.90;1.00
1381;DHT22;684;48.342;10.096;2023-06-14T13:01:26;26.90;1.00
1381;DHT22;684;48.342;10.096;2023-06-14T13:03:53;27.00;1.00
1381;DHT22;684;48.342;10.096;2023-06-14T13:06:21;27.00;1.00
1381;DHT22;684;48.342;10.096;2023-06-14T13:08:48;27.00;1.00
1381;DHT22;684;48.342;10.096;2023-06-14T13:11:15;26.80;1.00
1381;DHT22;684;48.342;10.096;2023-06-14T13:13:42;26.70;1.00
1381;DHT22;684;48.342;10.096;2023-06-14T13:16:10;26.60;1.00
1381;DHT22;684;48.342;10.096;2023-06-14T13:18:38;26.30;1.00
1381;DHT22;684;48.342;10.096;2023-06-14T13:21:05;26.10;1.00
1381;DHT22;684;48.342;10.096;2023-06-14T13:23:32;25.90;1.00
1381;DHT22;684;48.342;10.096;2023-06-14T13:25:59;25.70;1.00
1381;DHT22;684;48.342;10.096;2023-06-14T13:28:25;25.50;1.00
1381;DHT22;684;48.342;10.096;2023-06-14T13:30:52;25.30;1.00
1381;DHT22;684;48.342;10.096;2023-06-14T13:33:22;25.10;1.00
1381;DHT22;684;48.342;10.096;2023-06-14T13:35:49;25.00;1.00
1381;DHT22;684;48.342;10.096;2023-06-14T13:38:18;25.00;1.00
1381;DHT22;684;48.342;10.096;2023-06-14T13:40:45;25.00;1.00
1381;DHT22;684;48.342;10.096;2023-06-14T13:43:11;25.20;1.00
1381;DHT22;684;48.342;10.096;2023-06-14T13:45:38;25.30;1.00
1381;DHT22;684;48.342;10.096;2023-06-14T13:48:05;25.30;1.00
1381;DHT22;684;48.342;10.096;2023-06-14T13:50:33;25.40;1.00
1381;DHT22;684;48.342;10.096;2023-06-14T13:53:00;25.60;1.00
1381;DHT22;684;48.342;10.096;2023-06-14T13:55:27;25.80;1.00
1381;DHT22;684;48.342;10.096;2023-06-14T13:57:54;25.80;1.00
1381;DHT22;684;48.342;10.096;2023-06-14T14:00:22;25.90;1.00
1381;DHT22;684;48.342;10.096;2023-06-14T14:02:49;25.90;1.00
1381;DHT22;684;48.342;10.096;2023-06-14T14:05:16;25.80;1.00
1381;DHT22;684;48.342;10.096;2023-06-14T14:07:44;25.80;1.00
1381;DHT22;684;48.342;10.096;2023-06-14T14:10:11;25.70;1.00
1381;DHT22;684;48.342;10.096;2023-06-14T14:12:38;25.60;1.00
1381;DHT22;684;48.342;10.096;2023-06-14T14:15:06;25.50;1.00
1381;DHT22;684;48.342;10.096;2023-06-14T14:17:38;25.40;1.00
1381;DHT22;684;48.342;10.096;2023-06-14T14:20:05;25.30;1.00
1381;DHT22;684;48.342;10.096;2023-06-14T14:22:32;25.20;1.00
1381;DHT22;684;48.342;10.096;2023-06-14T14:25:00;25.30;1.00
1381;DHT22;684;48.342;10.096;2023-06-14T14:27:27;25.20;1.00
1381;DHT22;684;48.342;10.096;2023-06-14T14:29:54;25.20;1.00
1381;DHT22;684;48.342;10.096;2023-06-14T14:32:20;25.20;1.00
1381;DHT22;684;48.342;10.096;2023-06-14T14:34:47;25.20;1.00
1381;DHT22;684;48.342;10.096;2023-06-14T14:37:14;25.20;1.00
1381;DHT22;684;48.342;10.096;2023-06-14T14:39:41;25.20;1.00
1381;DHT22;684;48.342;10.096;2023-06-14T14:42:09;25.30;1.00
1381;DHT22;684;48.342;10.096;2023-06-14T14:44:36;25.30;1.00
1381;DHT22;684;48.342;10.096;2023-06-14T14:47:03;25.30;1.00
1381;DHT22;684;48.342;10.096;2023-06-14T14:49:30;25.40;1.00
1381;DHT22;684;48.342;10.096;2023-06-14T14:51:57;25.40;1.00
1381;DHT22;684;48.342;10.096;2023-06-14T14:54:24;25.40;1.00
1381;DHT22;684;48.342;10.096;2023-06-14T14:56:51;25.40;1.00
1381;DHT22;684;48.342;10.096;2023-06-14T14:59:19;25.40;1.00
1381;DHT22;684;48.342;10.096;2023-06-14T15:01:47;25.50;1.00
1381;DHT22;684;48.342;10.096;2023-06-14T15:04:14;25.50;1.00
1381;DHT22;684;48.342;10.096;2023-06-14T15:06:40;25.50;1.00
1381;DHT22;684;48.342;10.096;2023-06-14T15:09:07;25.50;1.00
1381;DHT22;684;48.342;10.096;2023-06-14T15:11:34;25.60;1.00
1381;DHT22;684;48.342;10.096;2023-06-14T15:14:01;25.60;1.00
1381;DHT22;684;48.342;10.096;2023-06-14T15:16:29;25.60;1.00
1381;DHT22;684;48.342;10.096;2023-06-14T15:18:56;25.60;1.00
1381;DHT22;684;48.342;10.096;2023-06-14T15:21:22;25.60;1.00
1381;DHT22;684;48.342;10.096;2023-06-14T15:23:49;25.60;1.00
1381;DHT22;684;48.342;10.096;2023-06-14T15:26:16;25.50;1.00
1381;DHT22;684;48.342;10.096;2023-06-14T15:28:43;25.50;1.00
1381;DHT22;684;48.342;10.096;2023-06-14T15:31:10;25.40;1.00
1381;DHT22;684;48.342;10.096;2023-06-14T15:33:38;25.30;1.00
1381;DHT22;684;48.342;10.096;2023-06-14T15:36:05;25.30;1.00
1381;DHT22;684;48.342;10.096;2023-06-14T15:38:34;25.10;1.00
1381;DHT22;684;48.342;10.096;2023-06-14T15:41:01;25.10;1.00
1381;DHT22;684;48.342;10.096;2023-06-14T15:43:28;25.10;1.00
1381;DHT22;684;48.342;10.096;2023-06-14T15:45:55;25.10;1.00
1381;DHT22;684;48.342;10.096;2023-06-14T15:48:22;25.10;1.00
1381;DHT22;684;48.342;10.096;2023-06-14T15:50:50;25.10;1.00
1381;DHT22;684;48.342;10.096;2023-06-14T15:53:18;25.10;1.00
1381;DHT22;684;48.342;10.096;2023-06-14T15:55:46;25.10;1.00
1381;DHT22;684;48.342;10.096;2023-06-14T15:58:13;25.10;1.00
1381;DHT22;684;48.342;10.096;2023-06-14T16:00:39;25.00;1.00
1381;DHT22;684;48.342;10.096;2023-06-14T16:03:06;25.00;1.00
1381;DHT22;684;48.342;10.096;2023-06-14T16:05:33;25.00;1.00
1381;DHT22;684;48.342;10.096;2023-06-14T16:08:01;25.00;1.00
1381;DHT22;684;48.342;10.096;2023-06-14T16:10:28;24.90;1.00
1381;DHT22;684;48.342;10.096;2023-06-14T16:12:56;25.00;1.00
1381;DHT22;684;48.342;10.096;2023-06-14T16:15:22;24.90;1.00
1381;DHT22;684;48.342;10.096;2023-06-14T16:17:49;24.90;1.00
1381;DHT22;684;48.342;10.096;2023-06-14T16:20:16;24.90;1.00
1381;DHT22;684;48.342;10.096;2023-06-14T16:22:43;24.90;1.00
1381;DHT22;684;48.342;10.096;2023-06-14T16:25:11;24.80;1.00